Terminal Aerodrome Forecast
Issued by NWS

Home | Current Version | Previous Version | Text Only | Print | Product List | Glossary On
Versions: 1 2 3 4 5 6 7 8 9 10 11 12 13 14 15 16 17 18 19 20 21 22 23 24 25 26 27 28 29 30
993
FTUS45 KREV 230522
TAFTVL
TAF
KTVL 230522Z 2306/2406 18005KT 1/4SM +SN VV003
     FM230900 20007KT 3SM -SHSN SCT010 BKN020
     FM231400 19005KT P6SM VCSH SCT030
     FM231900 19009KT 5SM -SHSN FEW012 BKN025=

USA.gov is the U.S. government's official web portal to all federal, state and local government web resources and services.